Time;durP1;ratioP1;P1;durP2;ratioP2;P2;SDS_P1;SDS_P2;PMS_P1;PMS_P2;Temp;Humidity;BMP_temperature;BMP_pressure;BME280_temperature;BME280_humidity;BME280_pressure;Samples;Min_cycle;Max_cycle;Signal;HPM_P1;HPM_P2
2021/08/31 00:01:45;;;;;;;28.88;13.80;;;16.90;99.90;;;;;;5035024;28;20033;-58
2021/08/31 00:04:11;;;;;;;27.63;15.38;;;16.80;99.90;;;;;;5034778;28;20074;-59
2021/08/31 00:06:36;;;;;;;34.55;16.42;;;16.80;99.90;;;;;;5034687;28;20025;-58
2021/08/31 00:09:02;;;;;;;27.48;16.15;;;16.80;99.90;;;;;;5033384;28;20029;-58
2021/08/31 00:11:28;;;;;;;30.55;15.55;;;16.80;99.90;;;;;;5034672;28;20084;-58
2021/08/31 00:13:53;;;;;;;27.90;14.75;;;16.80;99.90;;;;;;5034908;28;20108;-58
2021/08/31 00:16:19;;;;;;;27.48;15.35;;;16.80;99.90;;;;;;5034482;28;20021;-58
2021/08/31 00:18:45;;;;;;;27.48;14.77;;;16.80;99.90;;;;;;5034503;28;20591;-58
2021/08/31 00:21:11;;;;;;;31.38;15.95;;;16.80;99.90;;;;;;5034463;28;20101;-58
2021/08/31 00:23:37;;;;;;;28.23;15.80;;;16.90;99.90;;;;;;5034277;28;20029;-58
2021/08/31 00:26:03;;;;;;;29.38;16.25;;;16.80;99.90;;;;;;5034386;28;20036;-58
2021/08/31 00:28:29;;;;;;;30.63;15.50;;;16.70;99.90;;;;;;5034529;28;20105;-58
2021/08/31 00:30:55;;;;;;;32.63;16.38;;;16.70;99.90;;;;;;5033363;28;20562;-58
2021/08/31 00:33:20;;;;;;;28.98;16.65;;;16.70;99.90;;;;;;5033498;28;20112;-59
2021/08/31 00:35:46;;;;;;;29.73;16.35;;;16.70;99.90;;;;;;5034055;28;20402;-58
2021/08/31 00:38:12;;;;;;;30.75;15.85;;;16.70;99.90;;;;;;5034153;28;20030;-59
2021/08/31 00:40:37;;;;;;;28.05;15.90;;;16.60;99.90;;;;;;5032910;28;20041;-58
2021/08/31 00:43:05;;;;;;;30.10;17.15;;;16.60;99.90;;;;;;5034001;28;20029;-58
2021/08/31 00:45:31;;;;;;;30.40;16.98;;;16.50;99.90;;;;;;5033992;28;20033;-59
2021/08/31 00:47:58;;;;;;;28.13;16.67;;;16.40;99.90;;;;;;5033852;28;20033;-59
2021/08/31 00:50:24;;;;;;;30.77;17.45;;;16.40;99.90;;;;;;5033899;28;20082;-59
2021/08/31 00:52:50;;;;;;;32.42;16.65;;;16.50;99.90;;;;;;5033941;28;20133;-59
2021/08/31 00:55:15;;;;;;;28.00;16.92;;;16.40;99.90;;;;;;5034102;28;20108;-59
2021/08/31 00:57:41;;;;;;;33.85;16.80;;;16.50;99.90;;;;;;5032728;28;20033;-59
2021/08/31 01:00:13;;;;;;;29.75;16.08;;;16.50;99.90;;;;;;5032298;28;20045;-59
2021/08/31 01:02:38;;;;;;;30.23;15.63;;;16.60;99.90;;;;;;5033799;28;20033;-59
2021/08/31 01:05:06;;;;;;;30.40;16.25;;;16.60;99.90;;;;;;5033732;28;20025;-59
2021/08/31 01:07:32;;;;;;;28.60;14.88;;;16.60;99.90;;;;;;5033520;28;20485;-59
2021/08/31 01:10:00;;;;;;;31.88;15.25;;;16.60;99.90;;;;;;5033805;28;20049;-59
2021/08/31 01:12:27;;;;;;;24.95;14.32;;;16.60;99.90;;;;;;5033572;28;20029;-59
2021/08/31 01:14:54;;;;;;;26.48;14.70;;;16.60;99.90;;;;;;5033705;28;20022;-59
2021/08/31 01:17:21;;;;;;;24.65;15.30;;;16.60;99.90;;;;;;5033321;28;20025;-59
2021/08/31 01:19:47;;;;;;;30.13;15.18;;;16.70;99.90;;;;;;5033439;28;20386;-59
2021/08/31 01:22:13;;;;;;;24.58;15.05;;;16.70;99.90;;;;;;5033128;28;20029;-59
2021/08/31 01:24:43;;;;;;;25.20;15.05;;;16.60;99.90;;;;;;5033286;28;20121;-59
2021/08/31 01:27:10;;;;;;;25.15;14.85;;;16.60;99.90;;;;;;5033218;28;20513;-59
2021/08/31 01:29:36;;;;;;;23.38;13.80;;;16.50;99.90;;;;;;5033179;28;20386;-59
2021/08/31 01:32:06;;;;;;;23.33;14.48;;;16.50;99.90;;;;;;5033106;28;20097;-59
2021/08/31 01:34:31;;;;;;;26.58;15.07;;;16.50;99.90;;;;;;5032758;28;20433;-59
2021/08/31 01:36:57;;;;;;;28.67;15.25;;;16.50;99.90;;;;;;5032800;28;20053;-59
2021/08/31 01:39:23;;;;;;;23.05;14.95;;;16.50;99.90;;;;;;5032925;28;20026;-59
2021/08/31 01:41:49;;;;;;;28.73;14.32;;;16.50;99.90;;;;;;5032934;28;20498;-59
2021/08/31 01:44:14;;;;;;;26.13;15.13;;;16.50;99.90;;;;;;5032000;28;20105;-59
2021/08/31 01:46:40;;;;;;;29.42;14.27;;;16.50;99.90;;;;;;5032776;28;20043;-59
2021/08/31 01:49:06;;;;;;;23.35;14.10;;;16.40;99.90;;;;;;5031608;28;20064;-59
2021/08/31 01:51:32;;;;;;;27.23;16.00;;;16.30;99.90;;;;;;5032736;28;20418;-59
2021/08/31 01:53:58;;;;;;;30.40;15.68;;;16.30;99.90;;;;;;5033053;28;20478;-59
2021/08/31 01:56:24;;;;;;;25.48;15.57;;;16.30;99.90;;;;;;5032615;28;20026;-58
2021/08/31 01:58:50;;;;;;;26.13;15.10;;;16.20;99.90;;;;;;5032600;28;20021;-58
2021/08/31 02:01:16;;;;;;;25.67;16.02;;;16.20;99.90;;;;;;5032571;28;20014;-58
2021/08/31 02:03:41;;;;;;;30.33;15.38;;;16.20;99.90;;;;;;5031169;28;20041;-59
2021/08/31 02:06:08;;;;;;;27.20;15.60;;;16.20;99.90;;;;;;5032434;28;20029;-58
2021/08/31 02:08:33;;;;;;;27.83;16.13;;;16.20;99.90;;;;;;5032469;28;20025;-58
2021/08/31 02:10:59;;;;;;;34.70;17.30;;;16.20;99.90;;;;;;5032320;28;20156;-59
2021/08/31 02:13:25;;;;;;;33.67;17.13;;;16.20;99.90;;;;;;5032443;28;20432;-59
2021/08/31 02:15:50;;;;;;;26.42;17.08;;;16.10;99.90;;;;;;5030914;28;20029;-59
2021/08/31 02:18:16;;;;;;;30.55;17.73;;;16.10;99.90;;;;;;5032336;28;20026;-59
2021/08/31 02:20:42;;;;;;;28.17;17.13;;;16.10;99.90;;;;;;5032286;28;20075;-59
2021/08/31 02:23:08;;;;;;;31.30;17.33;;;16.10;99.90;;;;;;5032143;28;20040;-59
2021/08/31 02:25:34;;;;;;;31.83;17.55;;;16.20;99.90;;;;;;5030978;28;20021;-59
2021/08/31 02:28:00;;;;;;;25.83;16.33;;;16.20;99.90;;;;;;5030918;28;20140;-58
2021/08/31 02:30:26;;;;;;;31.27;17.13;;;16.20;99.90;;;;;;5032130;28;20057;-58
2021/08/31 02:32:52;;;;;;;30.80;17.20;;;16.20;99.90;;;;;;5032167;28;20029;-58
2021/08/31 02:35:18;;;;;;;29.83;17.52;;;16.20;99.90;;;;;;5032015;28;20040;-58
2021/08/31 02:37:44;;;;;;;32.50;18.42;;;16.20;99.90;;;;;;5031857;28;20128;-58
2021/08/31 02:40:11;;;;;;;25.88;17.17;;;16.20;99.90;;;;;;5032012;28;20550;-58
2021/08/31 02:42:37;;;;;;;30.83;18.10;;;16.20;99.90;;;;;;5031892;28;20033;-58
2021/08/31 02:45:04;;;;;;;28.25;18.02;;;16.20;99.90;;;;;;5031938;28;20427;-58
2021/08/31 02:47:30;;;;;;;26.45;18.83;;;16.20;99.90;;;;;;5031958;28;20475;-58
2021/08/31 02:49:56;;;;;;;29.45;18.10;;;16.20;99.90;;;;;;5031756;28;20024;-59
2021/08/31 02:52:21;;;;;;;29.08;17.63;;;16.20;99.90;;;;;;5031860;28;20526;-58
2021/08/31 02:54:47;;;;;;;31.42;17.77;;;16.20;99.90;;;;;;5031825;28;20057;-58
2021/08/31 02:57:13;;;;;;;31.27;19.13;;;16.20;99.90;;;;;;5031555;28;20071;-58
2021/08/31 02:59:38;;;;;;;30.42;18.77;;;16.20;99.90;;;;;;5031677;28;20036;-58
2021/08/31 03:02:04;;;;;;;30.67;18.50;;;16.20;99.90;;;;;;5031692;28;20033;-58
2021/08/31 03:04:31;;;;;;;29.30;18.77;;;16.20;99.90;;;;;;5031794;28;20026;-58
2021/08/31 03:06:57;;;;;;;29.50;19.70;;;16.20;99.90;;;;;;5031648;28;20024;-58
2021/08/31 03:09:22;;;;;;;33.38;19.35;;;16.30;99.90;;;;;;5031676;28;20045;-58
2021/08/31 03:11:48;;;;;;;30.38;19.25;;;16.20;99.90;;;;;;5031614;28;20025;-59
2021/08/31 03:14:19;;;;;;;34.50;20.77;;;16.20;99.90;;;;;;5030328;28;20075;-59
2021/08/31 03:16:45;;;;;;;33.83;21.08;;;16.20;99.90;;;;;;5030274;28;20108;-58
2021/08/31 03:19:11;;;;;;;34.03;21.98;;;16.20;99.90;;;;;;5031485;28;20435;-58
2021/08/31 03:21:37;;;;;;;38.38;22.42;;;16.10;99.90;;;;;;5031446;28;20021;-58
2021/08/31 03:24:03;;;;;;;33.05;21.88;;;16.10;99.90;;;;;;5031673;28;20017;-58
2021/08/31 03:26:28;;;;;;;33.28;20.92;;;16.20;99.90;;;;;;5031567;28;20423;-58
2021/08/31 03:28:54;;;;;;;37.35;22.58;;;16.20;99.90;;;;;;5031579;28;20022;-59
2021/08/31 03:31:20;;;;;;;36.75;20.73;;;16.30;99.90;;;;;;5031570;28;20437;-59
2021/08/31 03:33:45;;;;;;;35.85;22.13;;;16.30;99.90;;;;;;5031545;28;20026;-58
2021/08/31 03:36:11;;;;;;;32.47;20.55;;;16.20;99.90;;;;;;5029952;28;20064;-58
2021/08/31 03:38:36;;;;;;;34.13;21.73;;;16.20;99.90;;;;;;5031395;28;20021;-59
2021/08/31 03:41:02;;;;;;;31.17;20.88;;;16.30;99.90;;;;;;5031464;28;20497;-59
2021/08/31 03:43:27;;;;;;;32.65;21.27;;;16.30;99.90;;;;;;5031178;28;20021;-59
2021/08/31 03:45:53;;;;;;;34.58;22.13;;;16.30;99.90;;;;;;5031372;28;20034;-59
2021/08/31 03:48:19;;;;;;;36.22;22.15;;;16.40;99.90;;;;;;5031253;28;20022;-58
2021/08/31 03:50:45;;;;;;;34.55;21.85;;;16.40;99.90;;;;;;5031292;28;20033;-59
2021/08/31 03:53:10;;;;;;;39.00;22.95;;;16.40;99.90;;;;;;5031388;28;20990;-58
2021/08/31 03:55:36;;;;;;;34.70;22.50;;;16.40;99.90;;;;;;5031242;28;20616;-58
2021/08/31 03:58:06;;;;;;;33.78;22.70;;;16.40;99.90;;;;;;5031340;28;20034;-58
2021/08/31 04:00:35;;;;;;;36.00;24.33;;;16.30;99.90;;;;;;5031239;28;20033;-59
2021/08/31 04:03:02;;;;;;;43.33;24.50;;;16.40;99.90;;;;;;5031019;28;20600;-59
2021/08/31 04:05:28;;;;;;;37.15;23.92;;;16.40;99.90;;;;;;5031242;28;20386;-58
2021/08/31 04:07:53;;;;;;;39.80;25.92;;;16.40;99.90;;;;;;5032374;28;20029;-58
2021/08/31 04:10:19;;;;;;;38.20;25.65;;;16.40;99.90;;;;;;5034579;28;20470;-59
2021/08/31 04:12:44;;;;;;;37.58;27.00;;;16.30;99.90;;;;;;5034642;28;20068;-59
2021/08/31 04:15:10;;;;;;;38.25;26.65;;;16.40;99.90;;;;;;5034536;28;20510;-59
2021/08/31 04:17:36;;;;;;;40.40;26.77;;;16.40;99.90;;;;;;5034460;28;20036;-59
2021/08/31 04:20:03;;;;;;;42.63;26.70;;;16.30;99.90;;;;;;5034645;28;20022;-59
2021/08/31 04:22:29;;;;;;;40.10;27.10;;;16.40;99.90;;;;;;5034586;28;20395;-59
2021/08/31 04:24:54;;;;;;;40.17;29.00;;;16.40;99.90;;;;;;5034681;28;20100;-59
2021/08/31 04:27:20;;;;;;;41.15;28.73;;;16.40;99.90;;;;;;5034355;28;20033;-59
2021/08/31 04:29:45;;;;;;;45.13;28.65;;;16.40;99.90;;;;;;5034786;28;20025;-59
2021/08/31 04:32:11;;;;;;;38.53;28.33;;;16.30;99.90;;;;;;5034300;28;20037;-59
2021/08/31 04:34:37;;;;;;;45.50;28.95;;;16.30;99.90;;;;;;5034237;28;20522;-59
2021/08/31 04:37:02;;;;;;;42.65;27.90;;;16.40;99.90;;;;;;5033964;28;20082;-59
2021/08/31 04:39:28;;;;;;;41.00;28.52;;;16.40;99.90;;;;;;5034221;28;20033;-59
2021/08/31 04:41:54;;;;;;;45.08;28.17;;;16.50;99.90;;;;;;5034087;28;20034;-59
2021/08/31 04:44:19;;;;;;;43.38;28.88;;;16.40;99.90;;;;;;5034143;28;20033;-58
2021/08/31 04:46:45;;;;;;;44.97;29.75;;;16.40;99.90;;;;;;5033977;28;20072;-58
2021/08/31 04:49:10;;;;;;;39.15;28.88;;;16.50;99.90;;;;;;5033992;28;20092;-59
2021/08/31 04:51:36;;;;;;;43.22;28.98;;;16.50;99.90;;;;;;5033977;28;20378;-58
2021/08/31 04:54:02;;;;;;;41.92;28.60;;;16.60;99.90;;;;;;5033913;28;20025;-58
2021/08/31 04:56:27;;;;;;;43.45;29.30;;;16.60;99.90;;;;;;5033779;28;20058;-59
2021/08/31 04:58:53;;;;;;;41.30;30.33;;;16.50;99.90;;;;;;5033825;28;20407;-59
2021/08/31 05:01:18;;;;;;;49.70;32.67;;;16.60;99.90;;;;;;5032492;28;20103;-59
2021/08/31 05:03:46;;;;;;;44.97;30.85;;;16.70;99.90;;;;;;5033649;28;20037;-58
2021/08/31 05:06:11;;;;;;;45.15;32.78;;;16.70;99.90;;;;;;5032379;28;20470;-58
2021/08/31 05:08:37;;;;;;;46.25;31.98;;;16.90;99.90;;;;;;5033441;28;20021;-59
2021/08/31 05:11:03;;;;;;;43.63;32.20;;;16.90;99.90;;;;;;5033598;28;20034;-59
2021/08/31 05:13:30;;;;;;;46.10;30.90;;;16.80;99.90;;;;;;5033552;28;20100;-59
2021/08/31 05:15:57;;;;;;;43.85;31.58;;;16.70;99.90;;;;;;5033428;28;20017;-59
2021/08/31 05:18:23;;;;;;;42.28;29.52;;;16.60;99.90;;;;;;5032981;28;20108;-59
2021/08/31 05:20:48;;;;;;;44.22;30.75;;;16.60;99.90;;;;;;5033517;28;20105;-58
2021/08/31 05:23:14;;;;;;;38.65;29.05;;;16.60;99.90;;;;;;5033321;28;20432;-58
2021/08/31 05:25:39;;;;;;;38.65;28.20;;;16.70;99.90;;;;;;5033315;28;20382;-59
2021/08/31 05:28:05;;;;;;;38.50;28.10;;;16.70;99.90;;;;;;5033133;28;20028;-58
2021/08/31 05:30:31;;;;;;;41.45;27.73;;;16.70;99.90;;;;;;5031990;28;20501;-59
2021/08/31 05:32:56;;;;;;;35.92;27.35;;;16.60;99.90;;;;;;5032965;28;20022;-59
2021/08/31 05:35:22;;;;;;;40.28;27.35;;;16.60;99.90;;;;;;5032942;28;20025;-58
2021/08/31 05:37:47;;;;;;;45.30;26.88;;;16.60;99.90;;;;;;5033027;28;20037;-59
2021/08/31 05:40:13;;;;;;;38.90;27.20;;;16.60;99.90;;;;;;5033003;28;20032;-58
2021/08/31 05:42:39;;;;;;;42.22;26.98;;;16.60;99.90;;;;;;5032838;28;20351;-58
2021/08/31 05:45:05;;;;;;;40.63;28.10;;;16.70;99.90;;;;;;5033004;28;20026;-58
2021/08/31 05:47:31;;;;;;;39.17;27.50;;;16.90;99.90;;;;;;5033015;28;20379;-58
2021/08/31 05:49:57;;;;;;;38.60;26.98;;;16.80;99.90;;;;;;5031446;28;20029;-58
2021/08/31 05:52:22;;;;;;;41.38;26.20;;;16.70;99.90;;;;;;5032659;28;20036;-58
2021/08/31 05:54:48;;;;;;;38.28;26.73;;;16.80;99.90;;;;;;5032723;28;20033;-59
2021/08/31 05:57:13;;;;;;;36.53;26.95;;;16.80;99.90;;;;;;5032587;28;20033;-59
2021/08/31 05:59:40;;;;;;;43.65;26.73;;;16.80;99.90;;;;;;5032565;28;20061;-58
2021/08/31 06:02:09;;;;;;;37.65;25.85;;;16.70;99.90;;;;;;5032336;28;20417;-59
2021/08/31 06:04:39;;;;;;;44.33;26.95;;;16.70;99.90;;;;;;5032463;28;20113;-59
2021/08/31 06:07:09;;;;;;;39.80;26.88;;;16.70;99.90;;;;;;5032494;28;20072;-59
2021/08/31 06:09:36;;;;;;;37.00;26.30;;;16.80;99.90;;;;;;5032247;28;20032;-59
2021/08/31 06:12:04;;;;;;;42.25;28.20;;;16.80;99.90;;;;;;5032423;28;20033;-59
2021/08/31 06:14:29;;;;;;;42.00;29.10;;;16.80;99.90;;;;;;5032553;28;20024;-59
2021/08/31 06:16:55;;;;;;;41.35;30.25;;;16.80;99.90;;;;;;5030929;28;20029;-59
2021/08/31 06:19:21;;;;;;;44.53;30.35;;;16.90;99.90;;;;;;5031741;28;20037;-59
2021/08/31 06:21:46;;;;;;;51.42;34.20;;;16.90;99.90;;;;;;5030349;28;20022;-59
2021/08/31 06:24:12;;;;;;;50.17;37.17;;;16.90;99.90;;;;;;5029684;28;20040;-59
2021/08/31 06:26:38;;;;;;;48.70;36.78;;;17.00;99.90;;;;;;5027581;28;20033;-59
2021/08/31 06:29:04;;;;;;;51.00;35.35;;;17.10;99.90;;;;;;5028935;28;20544;-59
2021/08/31 06:31:29;;;;;;;45.13;34.30;;;17.20;99.90;;;;;;5024145;28;20396;-58
2021/08/31 06:33:55;;;;;;;40.50;33.50;;;17.20;99.90;;;;;;5029557;28;20482;-59
2021/08/31 06:36:20;;;;;;;43.58;35.35;;;17.30;99.90;;;;;;5030107;28;20060;-58
2021/08/31 06:38:46;;;;;;;41.92;35.47;;;17.20;99.90;;;;;;5030433;28;20096;-59
2021/08/31 06:41:12;;;;;;;43.22;35.83;;;17.40;99.90;;;;;;5028812;28;20036;-59
2021/08/31 06:43:37;;;;;;;45.05;38.05;;;17.40;99.90;;;;;;5027566;28;20041;-59
2021/08/31 06:46:03;;;;;;;51.72;40.33;;;17.40;99.90;;;;;;5029991;28;20056;-59
2021/08/31 06:48:29;;;;;;;55.10;41.63;;;17.50;99.90;;;;;;5030842;28;20374;-59
2021/08/31 06:50:54;;;;;;;49.38;39.92;;;17.40;99.90;;;;;;5031403;28;20061;-59
2021/08/31 06:53:20;;;;;;;49.17;40.72;;;17.30;99.90;;;;;;5031415;28;20480;-59
2021/08/31 06:55:46;;;;;;;44.30;37.95;;;17.30;99.90;;;;;;5030658;28;20048;-58
2021/08/31 06:58:11;;;;;;;49.58;38.40;;;17.20;99.90;;;;;;5031062;28;20132;-58
2021/08/31 07:00:37;;;;;;;46.15;37.35;;;17.30;99.90;;;;;;5028938;28;20053;-58
2021/08/31 07:03:03;;;;;;;52.65;36.28;;;17.40;99.90;;;;;;5031062;28;20033;-58
2021/08/31 07:05:28;;;;;;;44.25;35.40;;;17.40;99.90;;;;;;5031562;28;20064;-59
2021/08/31 07:07:54;;;;;;;43.97;34.28;;;17.60;99.90;;;;;;5031533;28;20025;-59
2021/08/31 07:10:19;;;;;;;44.08;34.17;;;17.80;99.90;;;;;;5030744;28;20386;-59
2021/08/31 07:12:45;;;;;;;41.13;33.05;;;17.80;99.90;;;;;;5031557;28;20482;-59
2021/08/31 07:15:11;;;;;;;46.33;34.70;;;17.80;99.90;;;;;;5029286;28;20079;-58
2021/08/31 07:17:38;;;;;;;49.10;36.63;;;17.60;99.90;;;;;;5030744;28;20034;-58
2021/08/31 07:20:04;;;;;;;47.92;36.45;;;17.60;99.90;;;;;;5022823;28;20075;-58
2021/08/31 07:22:30;;;;;;;46.55;36.53;;;17.70;99.90;;;;;;5028350;28;20039;-58
2021/08/31 07:24:56;;;;;;;49.72;36.92;;;17.60;99.90;;;;;;5028381;28;20029;-58
2021/08/31 07:27:21;;;;;;;47.53;37.63;;;17.60;99.90;;;;;;5027958;28;20033;-58
2021/08/31 07:29:47;;;;;;;45.80;35.47;;;17.60;99.90;;;;;;5026437;28;20047;-59
2021/08/31 07:32:13;;;;;;;49.20;35.92;;;17.50;99.90;;;;;;5026931;28;20482;-58
2021/08/31 07:34:39;;;;;;;44.75;34.05;;;17.60;99.90;;;;;;5026276;28;20068;-58
2021/08/31 07:37:06;;;;;;;44.38;34.55;;;17.60;99.90;;;;;;5021134;28;20156;-58
2021/08/31 07:39:32;;;;;;;48.83;37.40;;;17.70;99.90;;;;;;5022863;28;20044;-58
2021/08/31 07:41:58;;;;;;;48.22;36.05;;;17.70;99.90;;;;;;5028203;28;20065;-58
2021/08/31 07:44:24;;;;;;;46.72;36.05;;;17.80;99.90;;;;;;5028628;28;20061;-59
2021/08/31 07:46:51;;;;;;;40.50;33.45;;;18.00;99.90;;;;;;5031034;28;20034;-58
2021/08/31 07:49:17;;;;;;;37.58;31.08;;;18.20;99.90;;;;;;5030199;28;20116;-58
2021/08/31 07:51:44;;;;;;;36.55;29.35;;;18.60;99.90;;;;;;5029945;28;20041;-59
2021/08/31 07:54:10;;;;;;;36.28;28.73;;;18.70;99.90;;;;;;5025803;28;20308;-59
2021/08/31 07:56:36;;;;;;;34.42;27.67;;;19.00;99.90;;;;;;5029241;28;20486;-59
2021/08/31 07:59:02;;;;;;;37.53;29.10;;;19.30;99.90;;;;;;5029846;28;20064;-59
2021/08/31 08:01:29;;;;;;;35.63;29.40;;;19.50;99.90;;;;;;5027791;28;20029;-59
2021/08/31 08:03:59;;;;;;;33.35;27.58;;;19.30;99.90;;;;;;5028828;28;20129;-59
2021/08/31 08:06:25;;;;;;;38.35;25.60;;;19.10;99.90;;;;;;5028703;28;20026;-58
2021/08/31 08:08:50;;;;;;;30.92;25.08;;;18.80;99.90;;;;;;5029690;28;20041;-59
2021/08/31 08:11:16;;;;;;;31.02;24.73;;;18.60;99.90;;;;;;5029583;28;20124;-58
2021/08/31 08:13:42;;;;;;;37.35;27.02;;;18.50;99.90;;;;;;5028968;28;20039;-58
2021/08/31 08:16:07;;;;;;;41.10;28.85;;;18.50;99.90;;;;;;5027778;28;20029;-59
2021/08/31 08:18:33;;;;;;;38.17;28.42;;;18.50;99.90;;;;;;5029905;28;20521;-59
2021/08/31 08:20:59;;;;;;;39.70;28.27;;;18.50;99.90;;;;;;5029648;28;20033;-59
2021/08/31 08:23:25;;;;;;;43.60;27.77;;;18.70;99.90;;;;;;5011391;28;20092;-59
2021/08/31 08:25:51;;;;;;;43.20;27.85;;;18.90;99.90;;;;;;5009987;28;20156;-58
2021/08/31 08:28:17;;;;;;;38.17;26.27;;;19.20;99.90;;;;;;5027769;28;20030;-59
2021/08/31 08:30:42;;;;;;;35.75;26.00;;;19.20;99.90;;;;;;5030095;28;20068;-58
2021/08/31 08:33:08;;;;;;;34.22;26.95;;;19.50;99.90;;;;;;5030848;28;20037;-59
2021/08/31 08:35:34;;;;;;;33.80;26.92;;;19.70;99.90;;;;;;5029975;28;20033;-59
2021/08/31 08:38:00;;;;;;;33.97;27.05;;;19.60;99.90;;;;;;5029974;28;20042;-58
2021/08/31 08:40:26;;;;;;;33.83;27.10;;;19.40;99.90;;;;;;5029169;28;20060;-58
2021/08/31 08:42:52;;;;;;;33.03;24.42;;;19.30;99.90;;;;;;5030373;28;20047;-60
2021/08/31 08:45:18;;;;;;;35.00;22.67;;;19.30;99.90;;;;;;5029689;28;20029;-59
2021/08/31 08:47:44;;;;;;;26.73;21.30;;;19.10;99.90;;;;;;5030144;28;20547;-59
2021/08/31 08:50:10;;;;;;;27.65;20.80;;;19.10;99.90;;;;;;5030661;28;20021;-58
2021/08/31 08:52:36;;;;;;;29.25;23.15;;;19.20;99.90;;;;;;5030731;28;20624;-59
2021/08/31 08:55:09;;;;;;;27.33;21.85;;;19.80;99.90;;;;;;5029644;28;20048;-59
2021/08/31 08:57:35;;;;;;;25.70;19.23;;;20.10;99.90;;;;;;5030788;28;20533;-59
2021/08/31 09:00:01;;;;;;;24.83;18.08;;;20.70;99.90;;;;;;5030642;28;20029;-59
2021/08/31 09:02:33;;;;;;;19.00;16.13;;;21.80;99.90;;;;;;5030131;28;20030;-59
2021/08/31 09:04:59;;;;;;;19.45;17.38;;;22.40;99.90;;;;;;5029735;28;20064;-59
2021/08/31 09:07:28;;;;;;;21.38;18.05;;;22.30;99.90;;;;;;5030310;28;20060;-59
2021/08/31 09:10:20;;;;;;;21.83;17.58;;;21.80;99.90;;;;;;5027210;28;20061;-59
2021/08/31 09:12:51;;;;;;;22.83;17.48;;;21.30;99.90;;;;;;5010357;28;20033;-59
2021/08/31 09:15:35;;;;;;;21.98;16.05;;;21.10;99.90;;;;;;5023423;28;20198;-59
2021/08/31 09:18:14;;;;;;;20.88;14.50;;;22.00;99.90;;;;;;5030501;28;20041;-59
2021/08/31 09:21:02;;;;;;;18.65;12.50;;;22.50;99.90;;;;;;5030279;28;20025;-59
2021/08/31 09:23:33;;;;;;;17.27;12.40;;;23.30;99.90;;;;;;5030002;28;20037;-59
2021/08/31 09:26:08;;;;;;;17.77;11.57;;;24.00;99.90;;;;;;5030303;28;20566;-59
2021/08/31 09:28:39;;;;;;;15.10;11.38;;;24.30;99.90;;;;;;5010014;28;20253;-59
2021/08/31 09:31:11;;;;;;;16.80;11.97;;;24.80;99.90;;;;;;5012916;28;20078;-59
2021/08/31 09:33:58;;;;;;;19.13;12.38;;;25.40;99.90;;;;;;5025667;28;20025;-60
2021/08/31 09:36:25;;;;;;;16.88;12.23;;;25.60;99.90;;;;;;5027979;28;20128;-60
2021/08/31 09:39:02;;;;;;;17.63;13.32;;;25.20;99.90;;;;;;5025161;28;20395;-59
2021/08/31 09:41:32;;;;;;;16.10;12.95;;;25.70;99.90;;;;;;5028742;28;20064;-59
2021/08/31 09:44:00;;;;;;;15.25;11.75;;;25.90;99.90;;;;;;5029339;28;20108;-60
2021/08/31 09:46:59;;;;;;;17.73;11.50;;;25.50;99.90;;;;;;5024392;28;20040;-59
2021/08/31 09:49:33;;;;;;;14.85;11.93;;;26.10;99.90;;;;;;5025481;28;20563;-59
2021/08/31 09:52:13;;;;;;;15.65;11.60;;;26.40;99.90;;;;;;5025015;28;20021;-60
2021/08/31 09:54:45;;;;;;;13.70;11.13;;;26.70;99.90;;;;;;5029056;28;20104;-59
2021/08/31 09:57:37;;;;;;;16.52;11.07;;;26.30;99.90;;;;;;5025282;28;20030;-59
2021/08/31 10:00:09;;;;;;;13.63;11.35;;;26.10;99.90;;;;;;5008832;28;20029;-59
2021/08/31 10:02:36;;;;;;;13.30;10.68;;;26.80;99.90;;;;;;5023410;28;20037;-59
2021/08/31 10:05:04;;;;;;;12.65;10.65;;;26.80;99.90;;;;;;5027535;28;20087;-60
2021/08/31 10:07:31;;;;;;;14.85;11.00;;;27.50;99.90;;;;;;5027180;28;20048;-60
2021/08/31 10:09:59;;;;;;;16.60;10.48;;;27.40;99.90;;;;;;5029084;28;20440;-60
2021/08/31 10:12:26;;;;;;;13.27;9.05;;;26.30;99.90;;;;;;5029307;28;20065;-59
2021/08/31 10:14:55;;;;;;;12.75;10.20;;;25.10;99.90;;;;;;5028603;28;20041;-59
2021/08/31 10:17:25;;;;;;;12.10;9.90;;;23.80;99.90;;;;;;5008571;28;20622;-60
2021/08/31 10:19:52;;;;;;;13.40;10.02;;;22.80;99.90;;;;;;5009271;28;20026;-59
2021/08/31 10:22:18;;;;;;;12.10;8.90;;;22.20;99.90;;;;;;5009133;28;20034;-59
2021/08/31 10:24:45;;;;;;;13.90;9.15;;;22.30;99.90;;;;;;5008216;28;20041;-59
2021/08/31 10:27:40;;;;;;;13.98;8.52;;;23.10;99.90;;;;;;5009322;28;20118;-59
2021/08/31 10:30:18;;;;;;;12.27;8.07;;;23.10;99.90;;;;;;5008962;28;20569;-59
2021/08/31 10:32:45;;;;;;;12.68;7.80;;;22.60;99.90;;;;;;5010965;28;20486;-59
2021/08/31 10:35:42;;;;;;;13.40;8.98;;;22.50;99.90;;;;;;5028831;28;20043;-59
2021/08/31 10:38:11;;;;;;;14.30;8.85;;;22.20;99.90;;;;;;5031820;28;20064;-60
2021/08/31 10:40:42;;;;;;;13.57;8.43;;;22.10;99.90;;;;;;5031887;28;20060;-60
2021/08/31 10:43:14;;;;;;;10.45;7.43;;;22.20;99.90;;;;;;5032006;28;20036;-60
2021/08/31 10:45:41;;;;;;;;;;;23.10;99.90;;;;;;5032534;28;20083;-60
2021/08/31 10:48:22;;;;;;;8.70;5.68;;;24.20;99.90;;;;;;5031296;28;19905;-60
2021/08/31 10:50:58;;;;;;;6.30;5.32;;;24.90;99.90;;;;;;5015501;28;20047;-60
2021/08/31 10:53:42;;;;;;;9.50;5.70;;;24.50;99.90;;;;;;5030504;28;20121;-59
2021/08/31 10:56:20;;;;;;;8.85;5.40;;;24.70;99.90;;;;;;5031779;28;20414;-60
2021/08/31 10:58:51;;;;;;;8.23;5.28;;;25.30;99.90;;;;;;5030427;28;20033;-59
2021/08/31 11:01:19;;;;;;;8.75;5.82;;;25.00;99.90;;;;;;5031870;28;20030;-59
2021/08/31 11:03:46;;;;;;;11.95;5.03;;;24.40;99.90;;;;;;5031653;28;20103;-59
2021/08/31 11:06:30;;;;;;;8.93;5.43;;;24.00;99.90;;;;;;5031721;28;20059;-59
2021/08/31 11:09:11;;;;;;;12.80;5.80;;;24.60;99.90;;;;;;5031873;28;20028;-59
2021/08/31 11:11:38;;;;;;;9.90;6.13;;;25.50;99.90;;;;;;5028371;28;20087;-59
2021/08/31 11:14:05;;;;;;;8.00;5.25;;;26.80;99.90;;;;;;5031487;28;20347;-59
2021/08/31 11:16:39;;;;;;;11.77;6.63;;;27.50;99.70;;;;;;5031786;28;20022;-59
2021/08/31 11:19:26;;;;;;;13.80;6.40;;;27.00;99.40;;;;;;5035435;28;20033;-60
2021/08/31 11:21:54;;;;;;;10.02;5.60;;;28.00;98.30;;;;;;5035555;28;20113;-59
2021/08/31 11:24:20;;;;;;;8.32;5.57;;;27.90;98.00;;;;;;5035538;28;20535;-60
2021/08/31 11:26:46;;;;;;;14.15;6.53;;;27.10;99.10;;;;;;5035548;28;20024;-59
2021/08/31 11:29:13;;;;;;;11.77;6.00;;;26.00;99.90;;;;;;5035424;28;20034;-59
2021/08/31 11:31:39;;;;;;;13.95;6.70;;;25.70;99.90;;;;;;5035538;28;20034;-60
2021/08/31 11:34:10;;;;;;;10.73;5.07;;;25.30;99.90;;;;;;5036074;28;20116;-59
2021/08/31 11:36:42;;;;;;;7.15;4.63;;;25.80;99.90;;;;;;5034991;28;20045;-59
2021/08/31 11:39:10;;;;;;;13.57;5.47;;;25.80;98.60;;;;;;5035139;28;20522;-59
2021/08/31 11:41:37;;;;;;;8.10;4.97;;;25.70;98.90;;;;;;5035349;28;20543;-59
2021/08/31 11:44:14;;;;;;;6.55;4.80;;;25.40;99.80;;;;;;5034732;28;20036;-60
2021/08/31 11:46:51;;;;;;;10.05;5.47;;;25.10;99.90;;;;;;5034938;28;20079;-59
2021/08/31 11:49:29;;;;;;;11.30;5.35;;;25.50;99.90;;;;;;5016970;28;20021;-59
2021/08/31 11:51:55;;;;;;;10.50;5.32;;;27.20;98.30;;;;;;5034967;28;20029;-60
2021/08/31 11:54:21;;;;;;;7.60;5.25;;;27.30;96.80;;;;;;5031720;28;20018;-60
2021/08/31 11:56:52;;;;;;;8.75;5.35;;;25.90;98.20;;;;;;5031271;28;20390;-60
2021/08/31 11:59:41;;;;;;;10.48;5.47;;;24.80;99.90;;;;;;5031388;28;20040;-59
2021/08/31 12:02:27;;;;;;;9.48;5.53;;;24.30;99.90;;;;;;5031202;28;20359;-59
2021/08/31 12:04:53;;;;;;;10.88;6.30;;;24.00;99.90;;;;;;5033961;28;20030;-59
2021/08/31 12:07:23;;;;;;;10.00;6.28;;;23.70;99.90;;;;;;5034872;28;20018;-59
2021/08/31 12:09:52;;;;;;;9.02;5.38;;;23.90;99.90;;;;;;5034626;28;20026;-59
2021/08/31 12:12:18;;;;;;;8.02;5.22;;;23.90;99.90;;;;;;5034311;28;20108;-59
2021/08/31 12:14:48;;;;;;;9.15;5.43;;;24.10;99.90;;;;;;5034419;28;20021;-59
2021/08/31 12:17:30;;;;;;;10.27;5.03;;;25.30;99.70;;;;;;5034687;28;20021;-60
2021/08/31 12:20:23;;;;;;;6.72;4.70;;;26.50;97.70;;;;;;5033410;28;20021;-60
2021/08/31 12:22:50;;;;;;;6.22;4.88;;;27.60;96.10;;;;;;5033863;28;20029;-60
2021/08/31 12:25:18;;;;;;;12.27;4.93;;;28.40;95.10;;;;;;5034300;28;20474;-60
2021/08/31 12:27:45;;;;;;;7.55;4.78;;;28.30;93.80;;;;;;5034121;28;20467;-60
2021/08/31 12:30:16;;;;;;;6.80;4.53;;;28.00;93.90;;;;;;5033819;28;20037;-60
2021/08/31 12:32:43;;;;;;;15.82;5.70;;;27.80;94.50;;;;;;5034225;28;20030;-60
2021/08/31 12:35:35;;;;;;;7.55;5.10;;;26.60;96.10;;;;;;5034170;28;20037;-60